Time;durP1;ratioP1;P1;durP2;ratioP2;P2;SDS_P1;SDS_P2;PMS_P1;PMS_P2;Temp;Humidity;BMP_temperature;BMP_pressure;BME280_temperature;BME280_humidity;BME280_pressure;Samples;Min_cycle;Max_cycle;Signal;HPM_P1;HPM_P2
2024/04/26 00:00:22;;;;;;;4.77;2.63;;;5.10;99.90;;;;;;5244251;27;20234;-63
2024/04/26 00:02:47;;;;;;;3.60;3.10;;;5.10;99.90;;;;;;5251949;27;20296;-62
2024/04/26 00:05:13;;;;;;;3.27;2.70;;;5.10;99.90;;;;;;5261378;27;20670;-62
2024/04/26 00:07:39;;;;;;;2.90;2.67;;;5.00;99.90;;;;;;5243662;27;20240;-62
2024/04/26 00:10:04;;;;;;;3.17;2.87;;;5.00;99.90;;;;;;5233213;27;20286;-62
2024/04/26 00:12:30;;;;;;;3.27;2.97;;;5.00;99.90;;;;;;5240118;27;20331;-63
2024/04/26 00:14:56;;;;;;;6.30;3.40;;;5.00;99.90;;;;;;5243480;27;20289;-63
2024/04/26 00:17:21;;;;;;;2.80;2.60;;;5.00;99.90;;;;;;5247713;27;20242;-62
2024/04/26 00:19:47;;;;;;;4.43;2.87;;;5.00;99.90;;;;;;5251372;27;20230;-63
2024/04/26 00:22:12;;;;;;;2.50;2.30;;;5.00;99.90;;;;;;5237603;27;20291;-63
2024/04/26 00:24:41;;;;;;;3.20;2.90;;;5.00;99.90;;;;;;5250768;27;20281;-60
2024/04/26 00:27:08;;;;;;;4.03;3.10;;;5.00;99.90;;;;;;5243905;27;20348;-63
2024/04/26 00:29:33;;;;;;;3.00;2.80;;;5.00;99.90;;;;;;5252188;27;20465;-63
2024/04/26 00:31:59;;;;;;;4.57;2.73;;;5.00;99.90;;;;;;5241067;27;20513;-61
2024/04/26 00:34:24;;;;;;;3.63;3.30;;;5.00;99.90;;;;;;5242613;27;20250;-59
2024/04/26 00:36:50;;;;;;;4.90;3.27;;;5.10;99.90;;;;;;5252645;27;20271;-61
2024/04/26 00:39:15;;;;;;;4.13;3.10;;;5.10;99.90;;;;;;5247542;27;20226;-61
2024/04/26 00:41:41;;;;;;;3.80;3.50;;;5.00;99.90;;;;;;5261996;27;20335;-61
2024/04/26 00:44:12;;;;;;;2.90;2.70;;;5.10;99.90;;;;;;5261824;27;20230;-63
2024/04/26 00:46:44;;;;;;;3.60;3.10;;;5.10;99.90;;;;;;5243353;27;20236;-63
2024/04/26 00:49:10;;;;;;;3.60;3.30;;;5.20;99.90;;;;;;5264961;27;20452;-62
2024/04/26 00:51:37;;;;;;;4.17;2.97;;;5.20;99.90;;;;;;5259502;27;20457;-60
2024/04/26 00:54:04;;;;;;;5.03;3.20;;;5.20;99.90;;;;;;5257648;27;20534;-63
2024/04/26 00:56:30;;;;;;;3.90;3.17;;;5.20;99.90;;;;;;5244147;27;20535;-58
2024/04/26 00:58:56;;;;;;;4.57;3.13;;;5.20;99.90;;;;;;5244513;27;20830;-62
2024/04/26 01:01:22;;;;;;;3.47;3.00;;;5.20;99.90;;;;;;5248302;27;20525;-62
2024/04/26 01:03:48;;;;;;;2.93;2.73;;;5.30;99.90;;;;;;5244850;27;20233;-60
2024/04/26 01:06:13;;;;;;;3.90;3.50;;;5.40;99.90;;;;;;5250830;27;20579;-59
2024/04/26 01:08:39;;;;;;;3.20;2.90;;;5.40;99.90;;;;;;5246737;27;20262;-57
2024/04/26 01:11:05;;;;;;;3.60;3.30;;;5.40;99.90;;;;;;5257373;27;20748;-57
2024/04/26 01:13:34;;;;;;;4.23;3.70;;;5.40;99.90;;;;;;5262862;27;20228;-60
2024/04/26 01:15:59;;;;;;;4.20;3.20;;;5.40;99.90;;;;;;5250249;27;20351;-61
2024/04/26 01:18:25;;;;;;;3.17;2.83;;;5.40;99.90;;;;;;5252311;27;20495;-57
2024/04/26 01:20:52;;;;;;;3.40;3.10;;;5.50;99.90;;;;;;5246171;27;20299;-61
2024/04/26 01:23:18;;;;;;;3.80;2.97;;;5.50;99.90;;;;;;5260012;27;20229;-62
2024/04/26 01:25:57;;;;;;;4.73;4.30;;;5.50;99.90;;;;;;5246758;27;21090;-62
2024/04/26 01:28:23;;;;;;;3.43;3.13;;;5.50;99.90;;;;;;5251022;27;20469;-62
2024/04/26 01:30:48;;;;;;;3.93;3.43;;;5.50;99.90;;;;;;5256046;27;20469;-61
2024/04/26 01:33:14;;;;;;;4.77;3.37;;;5.50;99.90;;;;;;5253164;27;20720;-63
2024/04/26 01:35:40;;;;;;;3.80;3.30;;;5.50;99.90;;;;;;5245625;27;20340;-61
2024/04/26 01:38:05;;;;;;;3.53;2.90;;;5.50;99.90;;;;;;5242301;27;20481;-61
2024/04/26 01:40:31;;;;;;;5.40;3.97;;;5.50;99.90;;;;;;5242050;27;20234;-62
2024/04/26 01:42:57;;;;;;;3.80;3.50;;;5.50;99.90;;;;;;5242092;27;20619;-62
2024/04/26 01:45:22;;;;;;;6.10;3.10;;;5.50;99.90;;;;;;5247031;27;20259;-62
2024/04/26 01:47:48;;;;;;;4.07;3.67;;;5.50;99.90;;;;;;5242319;27;20720;-63
2024/04/26 01:50:13;;;;;;;6.10;3.87;;;5.60;99.90;;;;;;5236449;27;20271;-60
2024/04/26 01:52:39;;;;;;;4.20;3.50;;;5.60;99.90;;;;;;5255434;27;20280;-60
2024/04/26 01:55:05;;;;;;;3.80;2.93;;;5.60;99.90;;;;;;5266780;27;20228;-60
2024/04/26 01:57:30;;;;;;;3.67;3.13;;;5.60;99.90;;;;;;5253496;27;20229;-61
2024/04/26 01:59:56;;;;;;;3.53;3.23;;;5.60;99.90;;;;;;5241833;27;20226;-60
2024/04/26 02:02:21;;;;;;;3.40;3.10;;;5.60;99.90;;;;;;5257859;27;20328;-62
2024/04/26 02:04:47;;;;;;;3.90;3.50;;;5.60;99.90;;;;;;5241393;27;20365;-62
2024/04/26 02:07:12;;;;;;;5.97;3.80;;;5.60;99.90;;;;;;5242072;27;20293;-64
2024/04/26 02:09:38;;;;;;;6.73;4.10;;;5.60;99.90;;;;;;5250438;27;20361;-61
2024/04/26 02:12:04;;;;;;;4.40;3.47;;;5.60;99.90;;;;;;5237983;27;20408;-61
2024/04/26 02:14:29;;;;;;;3.43;3.13;;;5.60;99.90;;;;;;5237797;27;20229;-62
2024/04/26 02:16:55;;;;;;;3.03;2.80;;;5.60;99.90;;;;;;5244112;27;20233;-62
2024/04/26 02:19:22;;;;;;;6.57;3.60;;;5.60;99.90;;;;;;5247246;27;20230;-61
2024/04/26 02:21:47;;;;;;;7.40;3.27;;;5.60;99.90;;;;;;5248568;27;20461;-63
2024/04/26 02:24:13;;;;;;;4.00;3.60;;;5.60;99.90;;;;;;5246933;27;20999;-62
2024/04/26 02:26:39;;;;;;;4.00;3.60;;;5.60;99.90;;;;;;5241532;27;20234;-58
2024/04/26 02:29:05;;;;;;;5.60;3.40;;;5.60;99.90;;;;;;5238970;27;20249;-59
2024/04/26 02:31:30;;;;;;;5.43;3.20;;;5.60;99.90;;;;;;5251804;27;20580;-61
2024/04/26 02:33:56;;;;;;;3.83;3.50;;;5.50;99.90;;;;;;5240794;27;20237;-60
2024/04/26 02:36:22;;;;;;;5.83;3.80;;;5.60;99.90;;;;;;5239757;27;20268;-62
2024/04/26 02:38:47;;;;;;;3.20;2.90;;;5.50;99.90;;;;;;5245945;27;20573;-63
2024/04/26 02:41:13;;;;;;;4.00;3.10;;;5.50;99.90;;;;;;5252353;27;20236;-63
2024/04/26 02:43:41;;;;;;;3.57;3.00;;;5.50;99.90;;;;;;5240569;27;20222;-65
2024/04/26 02:46:09;;;;;;;3.50;3.20;;;5.50;99.90;;;;;;5244668;27;20460;-65
2024/04/26 02:48:35;;;;;;;11.10;4.17;;;5.50;99.90;;;;;;5241905;27;20520;-64
2024/04/26 02:51:00;;;;;;;6.47;4.20;;;5.50;99.90;;;;;;5253294;27;20814;-63
2024/04/26 02:53:26;;;;;;;4.17;3.77;;;5.40;99.90;;;;;;5244779;27;20332;-64
2024/04/26 02:55:51;;;;;;;6.63;4.17;;;5.40;99.90;;;;;;5254282;27;20680;-63
2024/04/26 02:58:17;;;;;;;5.13;3.93;;;5.40;99.90;;;;;;5254113;27;20628;-64
2024/04/26 03:00:43;;;;;;;4.93;3.50;;;5.40;99.90;;;;;;5245829;27;20224;-63
2024/04/26 03:03:08;;;;;;;7.40;4.27;;;5.30;99.90;;;;;;5241947;27;20273;-63
2024/04/26 03:05:34;;;;;;;4.17;2.80;;;5.30;99.90;;;;;;5268051;27;20304;-63
2024/04/26 03:07:59;;;;;;;4.40;4.03;;;5.30;99.90;;;;;;5262370;27;20682;-63
2024/04/26 03:10:25;;;;;;;6.60;3.50;;;5.20;99.90;;;;;;5260300;27;20294;-62
2024/04/26 03:12:50;;;;;;;5.13;3.83;;;5.20;99.90;;;;;;5255181;27;20233;-62
2024/04/26 03:15:16;;;;;;;3.80;3.50;;;5.20;99.90;;;;;;5258410;27;20237;-62
2024/04/26 03:17:42;;;;;;;4.90;3.90;;;5.10;99.90;;;;;;5244182;27;20244;-62
2024/04/26 03:20:08;;;;;;;6.07;3.23;;;5.10;99.90;;;;;;5249968;27;20336;-65
2024/04/26 03:22:33;;;;;;;4.43;4.03;;;5.00;99.90;;;;;;5254335;27;20226;-63
2024/04/26 03:24:59;;;;;;;3.40;3.10;;;4.90;99.90;;;;;;5262803;27;20457;-63
2024/04/26 03:27:24;;;;;;;5.47;4.30;;;4.90;99.90;;;;;;5261547;27;20244;-63
2024/04/26 03:29:50;;;;;;;4.20;3.67;;;4.90;99.90;;;;;;5261055;27;20241;-63
2024/04/26 03:32:16;;;;;;;5.03;4.37;;;4.80;99.90;;;;;;5264230;27;20275;-62
2024/04/26 03:34:42;;;;;;;4.80;4.30;;;4.80;99.90;;;;;;5253723;27;20225;-63
2024/04/26 03:37:08;;;;;;;6.37;4.00;;;4.80;99.90;;;;;;5255222;27;20271;-63
2024/04/26 03:39:33;;;;;;;4.17;3.80;;;4.70;99.90;;;;;;5248290;27;20539;-64
2024/04/26 03:41:59;;;;;;;4.63;4.23;;;4.70;99.90;;;;;;5248013;27;20221;-63
2024/04/26 03:44:24;;;;;;;4.30;3.90;;;4.70;99.90;;;;;;5243701;27;20591;-64
2024/04/26 03:46:50;;;;;;;4.77;3.90;;;4.60;99.90;;;;;;5247638;27;20237;-64
2024/04/26 03:49:15;;;;;;;4.43;4.03;;;4.60;99.90;;;;;;5266567;27;20296;-64
2024/04/26 03:51:41;;;;;;;5.77;5.17;;;4.60;99.90;;;;;;5258745;27;20233;-64
2024/04/26 03:54:07;;;;;;;4.73;4.13;;;4.60;99.90;;;;;;5244137;27;20234;-64
2024/04/26 03:56:32;;;;;;;4.07;3.63;;;4.60;99.90;;;;;;5258239;27;20234;-65
2024/04/26 03:58:58;;;;;;;4.60;3.77;;;4.50;99.90;;;;;;5248880;27;20244;-64
2024/04/26 04:01:23;;;;;;;5.63;4.70;;;4.50;99.90;;;;;;5265121;27;20229;-63
2024/04/26 04:03:49;;;;;;;5.83;4.87;;;4.50;99.90;;;;;;5251997;27;20226;-63
2024/04/26 04:06:14;;;;;;;7.73;4.90;;;4.50;99.90;;;;;;5261744;27;20229;-64
2024/04/26 04:08:42;;;;;;;5.63;4.80;;;4.50;99.90;;;;;;5252944;27;20224;-64
2024/04/26 04:11:09;;;;;;;5.40;4.03;;;4.50;99.90;;;;;;5251312;27;20246;-63
2024/04/26 04:13:35;;;;;;;6.63;5.07;;;4.50;99.90;;;;;;5251613;27;21403;-64
2024/04/26 04:16:00;;;;;;;5.87;4.30;;;4.50;99.90;;;;;;5258802;27;20485;-63
2024/04/26 04:18:27;;;;;;;4.70;4.10;;;4.50;99.90;;;;;;5260574;27;20272;-64
2024/04/26 04:20:52;;;;;;;6.00;4.43;;;4.60;99.90;;;;;;5252347;27;20556;-64
2024/04/26 04:23:18;;;;;;;4.73;4.20;;;4.60;99.90;;;;;;5258775;27;20577;-63
2024/04/26 04:25:44;;;;;;;4.83;4.17;;;4.70;99.90;;;;;;5252855;27;20249;-63
2024/04/26 04:28:10;;;;;;;5.53;4.90;;;4.80;99.90;;;;;;5253235;27;20293;-62
2024/04/26 04:30:35;;;;;;;6.20;4.40;;;4.80;99.90;;;;;;5251506;27;20671;-63
2024/04/26 04:33:02;;;;;;;5.97;5.30;;;4.90;99.90;;;;;;5248832;27;20469;-62
2024/04/26 04:35:28;;;;;;;5.20;4.80;;;5.00;99.90;;;;;;5270696;27;20228;-63
2024/04/26 04:37:54;;;;;;;6.77;4.60;;;5.10;99.90;;;;;;5242697;27;20476;-62
2024/04/26 04:40:19;;;;;;;5.50;4.77;;;5.10;99.90;;;;;;5257052;27;20228;-63
2024/04/26 04:42:45;;;;;;;5.30;4.80;;;5.20;99.90;;;;;;5263313;27;21052;-64
2024/04/26 04:45:10;;;;;;;5.63;4.87;;;5.30;99.90;;;;;;5252339;27;20846;-63
2024/04/26 04:47:36;;;;;;;5.97;5.33;;;5.30;99.90;;;;;;5266648;27;20283;-63
2024/04/26 04:50:02;;;;;;;5.30;4.30;;;5.30;99.90;;;;;;5265271;27;20222;-63
2024/04/26 04:52:27;;;;;;;4.80;4.40;;;5.40;99.90;;;;;;5242454;27;20313;-64
2024/04/26 04:54:53;;;;;;;5.37;4.70;;;5.50;99.90;;;;;;5253978;27;20222;-63
2024/04/26 04:57:18;;;;;;;4.60;4.20;;;5.60;99.90;;;;;;5261939;27;20246;-64
2024/04/26 04:59:44;;;;;;;5.60;4.70;;;5.60;99.90;;;;;;5259007;27;20236;-62
2024/04/26 05:02:09;;;;;;;5.13;4.63;;;5.60;99.90;;;;;;5260699;27;20232;-65
2024/04/26 05:04:35;;;;;;;5.70;4.13;;;5.50;99.90;;;;;;5264876;27;20225;-64
2024/04/26 05:07:01;;;;;;;5.07;4.03;;;5.60;99.90;;;;;;5268554;27;20224;-65
2024/04/26 05:09:26;;;;;;;5.33;4.70;;;5.50;99.90;;;;;;5269383;27;20272;-64
2024/04/26 05:11:52;;;;;;;4.70;4.30;;;5.70;99.90;;;;;;5249062;27;20241;-63
2024/04/26 05:14:18;;;;;;;4.83;4.33;;;5.70;99.90;;;;;;5241792;27;20244;-64
2024/04/26 05:16:43;;;;;;;5.20;4.23;;;5.70;99.90;;;;;;5257440;27;20224;-64
2024/04/26 05:19:09;;;;;;;4.50;3.90;;;5.70;99.90;;;;;;5247492;27;20578;-64
2024/04/26 05:21:35;;;;;;;8.43;4.37;;;5.80;99.90;;;;;;5254078;27;20238;-64
2024/04/26 05:24:01;;;;;;;4.70;3.80;;;5.80;99.90;;;;;;5245503;27;20533;-64
2024/04/26 05:26:26;;;;;;;5.83;4.30;;;5.80;99.90;;;;;;5250740;27;20231;-64
2024/04/26 05:28:52;;;;;;;4.37;4.07;;;6.10;99.90;;;;;;5245423;27;20279;-64
2024/04/26 05:31:18;;;;;;;5.13;4.50;;;6.10;99.90;;;;;;5245890;27;20606;-62
2024/04/26 05:33:44;;;;;;;4.47;3.43;;;6.30;99.90;;;;;;5256014;27;20473;-63
2024/04/26 05:36:09;;;;;;;8.20;3.60;;;6.50;99.90;;;;;;5250842;27;20379;-63
2024/04/26 05:38:35;;;;;;;4.00;3.60;;;6.90;99.90;;;;;;5248348;27;20284;-63
2024/04/26 05:41:01;;;;;;;5.63;2.90;;;7.10;99.90;;;;;;5248521;27;20770;-63
2024/04/26 05:43:26;;;;;;;3.23;2.93;;;7.30;99.90;;;;;;5248222;27;20464;-63
2024/04/26 05:45:52;;;;;;;4.73;3.50;;;7.40;99.90;;;;;;5244252;27;20264;-64
2024/04/26 05:48:18;;;;;;;2.43;2.23;;;7.80;99.90;;;;;;5247759;27;20313;-63
2024/04/26 05:50:44;;;;;;;6.80;3.57;;;8.00;99.90;;;;;;5263799;27;20284;-63
2024/04/26 05:53:09;;;;;;;3.70;3.33;;;8.40;99.90;;;;;;5243162;27;21065;-62
2024/04/26 05:55:35;;;;;;;3.90;3.00;;;8.40;99.90;;;;;;5247662;27;20230;-63
2024/04/26 05:58:01;;;;;;;5.37;2.90;;;8.50;99.90;;;;;;5241875;27;20236;-64
2024/04/26 06:00:29;;;;;;;5.50;3.57;;;8.50;99.90;;;;;;5253383;27;20743;-63
2024/04/26 06:02:56;;;;;;;4.80;3.30;;;8.60;99.90;;;;;;5238967;27;21333;-64
2024/04/26 06:05:22;;;;;;;3.17;2.97;;;9.20;99.90;;;;;;5244771;27;20473;-63
2024/04/26 06:07:48;;;;;;;3.50;3.20;;;9.50;99.90;;;;;;5242000;27;20469;-64
2024/04/26 06:10:13;;;;;;;6.30;3.70;;;9.80;99.90;;;;;;5242307;27;20514;-63
2024/04/26 06:12:42;;;;;;;5.33;2.97;;;10.30;99.90;;;;;;5238656;27;20272;-64
2024/04/26 06:15:08;;;;;;;5.00;3.70;;;10.10;99.90;;;;;;5241380;27;20279;-63
2024/04/26 06:17:34;;;;;;;2.97;2.67;;;10.10;99.90;;;;;;5240782;27;21040;-63
2024/04/26 06:19:59;;;;;;;5.97;3.27;;;10.10;99.90;;;;;;5261949;27;20515;-64
2024/04/26 06:22:25;;;;;;;3.67;3.10;;;10.30;99.90;;;;;;5253525;27;20244;-64
2024/04/26 06:24:51;;;;;;;4.00;3.37;;;10.10;99.90;;;;;;5257640;27;20261;-64
2024/04/26 06:27:16;;;;;;;3.67;3.37;;;10.60;99.90;;;;;;5251175;27;20272;-65
2024/04/26 06:29:42;;;;;;;6.93;3.73;;;10.90;99.90;;;;;;5251150;27;20243;-62
2024/04/26 06:32:08;;;;;;;4.43;3.40;;;10.70;99.90;;;;;;5256901;27;20328;-63
2024/04/26 06:34:33;;;;;;;6.13;4.07;;;11.40;99.90;;;;;;5249090;27;20321;-63
2024/04/26 06:37:01;;;;;;;4.40;3.67;;;11.10;99.90;;;;;;5247120;27;20469;-63
2024/04/26 06:39:26;;;;;;;3.30;3.00;;;11.20;99.90;;;;;;5254353;27;20269;-63
2024/04/26 06:41:52;;;;;;;2.87;2.60;;;11.80;99.90;;;;;;5244234;27;21492;-63
2024/04/26 06:44:18;;;;;;;4.30;2.70;;;12.20;99.90;;;;;;5245201;27;20469;-63
2024/04/26 06:46:43;;;;;;;4.80;2.70;;;11.60;99.90;;;;;;5242631;27;20247;-63
2024/04/26 06:49:09;;;;;;;2.83;2.63;;;11.70;99.90;;;;;;5244279;27;20238;-63
2024/04/26 06:51:35;;;;;;;4.27;3.40;;;11.40;99.90;;;;;;5239801;27;20242;-63
2024/04/26 06:54:00;;;;;;;3.83;3.10;;;11.50;99.90;;;;;;5250529;27;20230;-63
2024/04/26 06:56:26;;;;;;;4.97;2.83;;;11.80;99.90;;;;;;5251499;27;20726;-63
2024/04/26 06:58:51;;;;;;;3.47;2.50;;;12.00;99.90;;;;;;5254848;27;20946;-64
2024/04/26 07:01:17;;;;;;;6.47;2.63;;;11.90;99.90;;;;;;5246540;27;20281;-70
2024/04/26 07:03:42;;;;;;;2.70;2.50;;;11.90;99.90;;;;;;5247782;27;20825;-63
2024/04/26 07:06:09;;;;;;;6.97;3.10;;;12.00;99.90;;;;;;5243961;27;20280;-67
2024/04/26 07:08:34;;;;;;;3.40;3.03;;;12.40;99.90;;;;;;5270327;27;20341;-65
2024/04/26 07:11:00;;;;;;;4.40;2.80;;;12.50;99.90;;;;;;5288957;27;20869;-69
2024/04/26 07:13:26;;;;;;;3.40;3.10;;;12.60;99.50;;;;;;5254368;27;20274;-68
2024/04/26 07:15:51;;;;;;;4.20;2.63;;;12.20;99.90;;;;;;5245799;27;20239;-63
2024/04/26 07:18:17;;;;;;;4.20;3.17;;;12.50;99.90;;;;;;5246219;27;20221;-63
2024/04/26 07:20:42;;;;;;;7.50;2.50;;;12.30;99.80;;;;;;5256771;27;20241;-64
2024/04/26 07:23:08;;;;;;;5.40;2.67;;;13.00;98.40;;;;;;5262019;27;20329;-64
2024/04/26 07:25:34;;;;;;;5.80;2.83;;;13.20;98.20;;;;;;5254258;27;20359;-64
2024/04/26 07:27:59;;;;;;;5.83;3.40;;;13.30;96.50;;;;;;5252191;27;20283;-62
2024/04/26 07:30:25;;;;;;;3.67;2.77;;;13.20;98.30;;;;;;5249220;27;20229;-62
2024/04/26 07:32:50;;;;;;;2.73;2.53;;;13.60;98.20;;;;;;5240952;27;20284;-63
2024/04/26 07:35:16;;;;;;;5.20;2.40;;;13.80;96.40;;;;;;5255169;27;20319;-63
2024/04/26 07:37:42;;;;;;;3.70;2.57;;;13.40;95.80;;;;;;5242973;27;20240;-62
2024/04/26 07:40:08;;;;;;;5.93;3.00;;;13.70;92.40;;;;;;5265276;27;20239;-63
2024/04/26 07:42:33;;;;;;;3.27;2.23;;;13.70;94.20;;;;;;5254121;27;20662;-63
2024/04/26 07:44:59;;;;;;;4.00;2.73;;;14.10;93.00;;;;;;5251715;27;20461;-63
2024/04/26 07:47:24;;;;;;;2.77;2.03;;;14.40;91.00;;;;;;5254903;27;20272;-64
2024/04/26 07:49:51;;;;;;;3.50;2.10;;;14.50;91.60;;;;;;5249322;27;20311;-63
2024/04/26 07:52:17;;;;;;;2.30;2.20;;;14.50;90.60;;;;;;5250022;27;20288;-63
2024/04/26 07:54:42;;;;;;;2.67;2.47;;;14.90;92.00;;;;;;5249708;27;20481;-64
2024/04/26 07:57:11;;;;;;;2.47;2.27;;;14.90;88.40;;;;;;5243958;27;20521;-63
2024/04/26 07:59:37;;;;;;;2.77;2.37;;;15.10;86.60;;;;;;5246499;27;20284;-63
2024/04/26 08:02:02;;;;;;;3.77;2.50;;;15.30;83.50;;;;;;5241915;27;21319;-63
2024/04/26 08:04:28;;;;;;;2.40;2.17;;;15.10;80.90;;;;;;5254360;27;20240;-62
2024/04/26 08:06:54;;;;;;;4.90;2.23;;;15.00;84.90;;;;;;5247497;27;20279;-62
2024/04/26 08:09:20;;;;;;;3.90;2.50;;;14.90;81.10;;;;;;5253584;27;20286;-65
2024/04/26 08:11:47;;;;;;;4.70;2.53;;;15.00;78.40;;;;;;5246126;27;20301;-63
2024/04/26 08:14:13;;;;;;;6.00;2.63;;;15.20;83.80;;;;;;5244334;27;20461;-65
2024/04/26 08:16:38;;;;;;;2.00;1.77;;;15.20;76.30;;;;;;5243678;27;20575;-66
2024/04/26 08:19:04;;;;;;;3.63;2.57;;;15.50;81.60;;;;;;5246453;27;20343;-65
2024/04/26 08:21:29;;;;;;;3.77;2.43;;;15.90;78.20;;;;;;5261199;27;20666;-65
2024/04/26 08:23:56;;;;;;;4.03;1.90;;;16.10;73.20;;;;;;5248940;27;20231;-64
2024/04/26 08:26:22;;;;;;;3.93;2.20;;;16.20;74.70;;;;;;5255625;27;20242;-67
2024/04/26 08:28:48;;;;;;;6.23;2.20;;;15.40;68.30;;;;;;5268530;27;20519;-66
2024/04/26 08:31:14;;;;;;;2.60;1.80;;;16.30;70.70;;;;;;5248011;27;20761;-65
2024/04/26 08:33:39;;;;;;;4.47;2.23;;;16.30;68.10;;;;;;5257273;27;21009;-63
2024/04/26 08:36:05;;;;;;;2.53;2.07;;;16.40;69.40;;;;;;5249801;27;20255;-70
2024/04/26 08:38:31;;;;;;;4.70;2.67;;;16.10;67.00;;;;;;5261123;27;20228;-67
2024/04/26 08:40:56;;;;;;;4.17;2.27;;;16.40;67.20;;;;;;5241947;27;20732;-63
2024/04/26 08:43:22;;;;;;;5.23;2.10;;;16.60;69.10;;;;;;5245686;27;20230;-64
2024/04/26 08:45:53;;;;;;;2.27;1.80;;;16.70;63.60;;;;;;5242854;27;20229;-63
2024/04/26 08:48:21;;;;;;;3.80;2.07;;;17.30;61.80;;;;;;5243441;27;20229;-63
2024/04/26 08:50:49;;;;;;;3.30;2.10;;;17.40;62.50;;;;;;5242931;27;20886;-62
2024/04/26 08:53:18;;;;;;;2.73;2.50;;;16.00;65.60;;;;;;5241892;27;20553;-66
2024/04/26 08:55:43;;;;;;;2.97;2.00;;;16.60;60.30;;;;;;5257213;27;20991;-63
2024/04/26 08:58:11;;;;;;;4.37;2.67;;;16.40;62.60;;;;;;5266505;27;20517;-62
2024/04/26 09:00:39;;;;;;;4.07;2.20;;;16.50;59.10;;;;;;5259752;27;20241;-62
2024/04/26 09:03:05;;;;;;;3.83;3.23;;;16.80;58.10;;;;;;5245749;27;20465;-64
2024/04/26 09:05:32;;;;;;;3.67;2.10;;;16.00;59.40;;;;;;5258417;27;21083;-64
2024/04/26 09:07:59;;;;;;;7.80;2.83;;;15.80;59.80;;;;;;5256215;27;20532;-64
2024/04/26 09:10:29;;;;;;;2.27;2.07;;;15.60;63.90;;;;;;5254634;27;20466;-64
2024/04/26 09:12:55;;;;;;;3.43;2.20;;;15.70;61.40;;;;;;5239736;27;21034;-64
2024/04/26 09:15:21;;;;;;;4.70;2.67;;;15.50;60.30;;;;;;5241578;27;21089;-64
2024/04/26 09:17:47;;;;;;;3.60;2.63;;;15.40;64.30;;;;;;5241572;27;20479;-64
2024/04/26 09:20:13;;;;;;;2.50;2.30;;;15.20;62.30;;;;;;5242824;27;20239;-63
2024/04/26 09:22:39;;;;;;;3.77;2.43;;;15.90;63.50;;;;;;5243280;27;21095;-64
2024/04/26 09:25:06;;;;;;;4.50;2.50;;;16.00;58.50;;;;;;5242895;27;20237;-64
2024/04/26 09:27:32;;;;;;;3.60;2.00;;;16.40;59.30;;;;;;5240719;27;20559;-64
2024/04/26 09:29:58;;;;;;;3.03;2.73;;;16.30;57.40;;;;;;5259053;27;20456;-64
2024/04/26 09:32:23;;;;;;;4.57;2.20;;;16.50;59.30;;;;;;5251563;27;20865;-65
2024/04/26 09:34:55;;;;;;;3.53;2.23;;;16.50;59.30;;;;;;5253757;27;20242;-63
2024/04/26 09:37:21;;;;;;;3.77;2.30;;;16.20;57.00;;;;;;5248746;27;20288;-67
2024/04/26 09:39:48;;;;;;;4.00;2.30;;;16.50;54.60;;;;;;5242838;27;20466;-63
2024/04/26 09:42:21;;;;;;;3.00;1.70;;;16.40;55.70;;;;;;5241680;27;20535;-66
2024/04/26 09:44:53;;;;;;;3.60;2.00;;;16.50;55.60;;;;;;5241866;27;20528;-64
2024/04/26 09:47:23;;;;;;;2.90;2.00;;;16.30;52.60;;;;;;5245127;27;20472;-63
2024/04/26 09:49:50;;;;;;;3.00;2.00;;;16.40;51.70;;;;;;5246132;27;20523;-64
2024/04/26 09:52:17;;;;;;;2.40;1.87;;;16.20;52.20;;;;;;5246496;27;21033;-63
2024/04/26 09:54:44;;;;;;;2.47;1.80;;;16.00;54.10;;;;;;5245282;27;21067;-63
2024/04/26 09:57:13;;;;;;;5.17;2.17;;;16.20;56.40;;;;;;5242358;27;20471;-64
2024/04/26 09:59:40;;;;;;;2.37;2.07;;;16.10;55.70;;;;;;5242343;27;20479;-63
2024/04/26 10:02:10;;;;;;;3.10;2.03;;;15.90;56.00;;;;;;5257344;27;20470;-64
2024/04/26 10:04:39;;;;;;;3.33;2.17;;;15.90;52.80;;;;;;5240085;27;20511;-64
2024/04/26 10:07:05;;;;;;;6.33;2.33;;;15.80;51.30;;;;;;5240945;27;20567;-63
2024/04/26 10:09:31;;;;;;;2.33;1.73;;;15.20;49.90;;;;;;5241787;27;20830;-63
2024/04/26 10:11:57;;;;;;;5.13;1.50;;;15.30;49.30;;;;;;5265586;27;20475;-63
2024/04/26 10:14:33;;;;;;;5.40;1.90;;;15.10;48.90;;;;;;5242105;27;20624;-68
2024/04/26 10:17:10;;;;;;;5.87;2.23;;;14.90;50.90;;;;;;5241811;27;20235;-66
2024/04/26 10:19:39;;;;;;;2.47;2.10;;;14.80;50.30;;;;;;5250244;27;20474;-63
2024/04/26 10:22:06;;;;;;;3.40;2.50;;;14.40;51.60;;;;;;5247475;27;20476;-64
2024/04/26 10:24:36;;;;;;;2.10;1.90;;;14.40;53.70;;;;;;5238479;27;20543;-64
2024/04/26 10:27:03;;;;;;;4.13;2.43;;;14.10;53.60;;;;;;5241479;27;20480;-68
2024/04/26 10:29:30;;;;;;;5.13;2.07;;;14.40;52.20;;;;;;5241394;27;20540;-66
2024/04/26 10:32:04;;;;;;;2.80;2.53;;;14.90;51.10;;;;;;5241883;27;20520;-65
2024/04/26 10:34:33;;;;;;;3.07;2.13;;;15.30;51.60;;;;;;5242083;27;20598;-63
2024/04/26 10:37:00;;;;;;;5.60;4.07;;;15.00;49.50;;;;;;5241162;27;20560;-61
2024/04/26 10:39:27;;;;;;;7.00;4.40;;;14.90;52.20;;;;;;5242081;27;20621;-66
2024/04/26 10:41:53;;;;;;;2.70;2.30;;;14.80;53.80;;;;;;5257773;27;20982;-62
2024/04/26 10:44:19;;;;;;;3.90;3.50;;;14.60;53.70;;;;;;5244231;27;20477;-64
2024/04/26 10:46:45;;;;;;;5.40;3.90;;;14.30;52.90;;;;;;5247470;27;20932;-61
2024/04/26 10:49:13;;;;;;;4.90;2.30;;;14.00;51.80;;;;;;5243448;27;20462;-61
2024/04/26 10:51:39;;;;;;;2.27;2.07;;;13.70;51.90;;;;;;5247487;27;20238;-61
2024/04/26 10:54:06;;;;;;;4.43;3.20;;;13.40;52.30;;;;;;5258653;27;20458;-62
2024/04/26 10:56:41;;;;;;;1.93;1.73;;;13.50;54.90;;;;;;5245438;27;20624;-62
2024/04/26 10:59:19;;;;;;;2.80;2.10;;;13.50;53.90;;;;;;5249596;27;20979;-62
2024/04/26 11:01:45;;;;;;;3.23;2.33;;;13.70;53.50;;;;;;5253663;27;20521;-62
2024/04/26 11:04:17;;;;;;;4.90;2.77;;;13.70;53.60;;;;;;5251432;27;20595;-62
2024/04/26 11:06:44;;;;;;;3.60;2.00;;;13.90;54.60;;;;;;5258689;27;21030;-63
2024/04/26 11:09:13;;;;;;;3.93;2.60;;;14.40;54.60;;;;;;5263109;27;20458;-64
2024/04/26 11:11:56;;;;;;;1.97;1.77;;;14.50;52.80;;;;;;5257901;27;20470;-64
2024/04/26 11:14:24;;;;;;;3.83;2.27;;;14.30;53.20;;;;;;5252240;27;20520;-63
2024/04/26 11:16:49;;;;;;;2.27;1.80;;;14.60;53.70;;;;;;5253416;27;20471;-63
2024/04/26 11:19:24;;;;;;;3.87;2.30;;;14.80;54.40;;;;;;5264604;27;20528;-67
2024/04/26 11:21:50;;;;;;;3.93;2.10;;;14.50;53.10;;;;;;5262249;27;20916;-64
2024/04/26 11:24:15;;;;;;;3.70;2.00;;;14.70;54.60;;;;;;5255348;27;20582;-64
2024/04/26 11:26:41;;;;;;;5.23;2.33;;;14.80;54.30;;;;;;5262544;27;20239;-64
2024/04/26 11:29:08;;;;;;;4.23;2.50;;;15.00;55.30;;;;;;5256357;27;20274;-63
2024/04/26 11:31:34;;;;;;;6.10;2.33;;;14.70;53.60;;;;;;5260956;27;20725;-63
2024/04/26 11:34:00;;;;;;;1.87;1.73;;;15.10;54.20;;;;;;5258363;27;20458;-63
2024/04/26 11:36:26;;;;;;;2.60;2.20;;;15.20;55.20;;;;;;5256016;27;20491;-63
2024/04/26 11:38:53;;;;;;;3.27;2.93;;;15.10;53.10;;;;;;5251523;27;20287;-63
2024/04/26 11:41:18;;;;;;;2.50;2.30;;;15.10;53.50;;;;;;5255935;27;20240;-64
2024/04/26 11:43:44;;;;;;;3.50;2.50;;;15.00;52.70;;;;;;5263246;27;20522;-64
2024/04/26 11:46:10;;;;;;;4.30;2.27;;;15.20;54.20;;;;;;5267756;26;20682;-64
2024/04/26 11:48:35;;;;;;;3.03;2.30;;;15.30;53.80;;;;;;5255236;27;20293;-69
2024/04/26 11:51:01;;;;;;;10.20;2.50;;;15.40;53.90;;;;;;5255666;27;20458;-72
2024/04/26 11:53:26;;;;;;;2.60;2.40;;;15.50;52.80;;;;;;5261805;27;20282;-64
2024/04/26 11:55:52;;;;;;;6.47;2.70;;;15.50;52.80;;;;;;5261471;27;20235;-65
2024/04/26 11:58:17;;;;;;;3.37;2.47;;;15.80;52.70;;;;;;5260203;27;20720;-64
2024/04/26 12:00:43;;;;;;;2.80;2.50;;;15.90;52.50;;;;;;5262415;27;20376;-64
2024/04/26 12:03:09;;;;;;;2.43;2.10;;;16.00;51.80;;;;;;5263155;27;20288;-63
2024/04/26 12:05:41;;;;;;;2.50;2.03;;;15.80;50.90;;;;;;5260110;27;20235;-70
2024/04/26 12:08:06;;;;;;;6.33;2.83;;;15.50;50.50;;;;;;5255682;27;20251;-64
2024/04/26 12:10:32;;;;;;;2.33;2.13;;;15.10;50.90;;;;;;5242678;27;20590;-64
2024/04/26 12:12:58;;;;;;;4.20;2.37;;;14.80;51.90;;;;;;5248803;27;20230;-63
2024/04/26 12:15:24;;;;;;;4.43;4.03;;;14.70;53.60;;;;;;5249568;27;20471;-63
2024/04/26 12:17:49;;;;;;;4.40;2.90;;;15.10;52.80;;;;;;5243354;27;20285;-63
2024/04/26 12:20:17;;;;;;;5.83;2.13;;;15.50;51.60;;;;;;5242908;27;20238;-64
2024/04/26 12:22:43;;;;;;;4.63;2.20;;;15.60;51.00;;;;;;5261714;27;20839;-64
2024/04/26 12:25:09;;;;;;;2.67;2.30;;;15.50;50.80;;;;;;5242907;27;21024;-64
2024/04/26 12:27:35;;;;;;;2.43;1.83;;;15.80;50.80;;;;;;5263408;26;20473;-64
2024/04/26 12:30:02;;;;;;;2.00;1.90;;;15.80;50.50;;;;;;5249319;27;20522;-64
2024/04/26 12:32:29;;;;;;;4.97;2.90;;;15.90;50.70;;;;;;5243147;27;20631;-64
2024/04/26 12:34:55;;;;;;;3.53;1.80;;;15.90;48.80;;;;;;5242870;27;20472;-64
2024/04/26 12:37:23;;;;;;;2.87;1.80;;;16.00;49.30;;;;;;5260338;27;20538;-64
2024/04/26 12:39:49;;;;;;;2.27;2.00;;;16.20;49.40;;;;;;5249674;27;20527;-64
2024/04/26 12:42:17;;;;;;;5.07;2.20;;;15.90;48.90;;;;;;5297502;27;20808;-72
2024/04/26 12:44:44;;;;;;;3.00;1.80;;;15.90;49.40;;;;;;5267018;27;20573;-68
2024/04/26 12:47:14;;;;;;;2.53;2.23;;;15.60;48.80;;;;;;5251671;27;20530;-64